createdAt,value
2023-03-05T00:03:04.738Z,5.86
2023-03-05T00:08:58.637Z,5.67
2023-03-05T00:14:53.933Z,5.95
2023-03-05T00:20:57.695Z,6.13
2023-03-05T00:26:45.843Z,6.13
2023-03-05T00:32:33.322Z,6.11
2023-03-05T00:38:20.293Z,6.26
2023-03-05T00:44:07.602Z,6.49
2023-03-05T00:49:57.341Z,6.61
2023-03-05T00:55:46.189Z,6.56
2023-03-05T01:01:33.093Z,6.57
2023-03-05T01:07:19.894Z,6.59
2023-03-05T01:13:06.957Z,6.53
2023-03-05T01:18:54.870Z,6.56
2023-03-05T01:24:41.763Z,6.69
2023-03-05T01:30:28.938Z,6.71
2023-03-05T01:36:17.023Z,6.58
2023-03-05T01:42:04.900Z,6.44
2023-03-05T01:47:51.940Z,6.61
2023-03-05T01:53:39.333Z,6.56
2023-03-05T01:59:27.285Z,6.42
2023-03-05T02:05:18.834Z,6.38
2023-03-05T02:11:06.088Z,6.44
2023-03-05T02:16:53.331Z,6.42
2023-03-05T02:22:40.211Z,6.44
2023-03-05T02:28:32.456Z,6.52
2023-03-05T02:34:19.170Z,6.42
2023-03-05T02:40:06.776Z,6.44
2023-03-05T02:45:53.662Z,6.26
2023-03-05T02:51:41.321Z,6.11
2023-03-05T02:57:28.953Z,6.15
2023-03-05T03:03:16.073Z,6.17
2023-03-05T03:09:06.912Z,6.10
2023-03-05T03:14:53.831Z,6.21
2023-03-05T03:20:40.625Z,5.92
2023-03-05T03:26:27.617Z,5.90
2023-03-05T03:32:14.446Z,6.02
2023-03-05T03:38:01.206Z,6.10
2023-03-05T03:43:47.919Z,5.99
2023-03-05T03:49:34.651Z,6.03
2023-03-05T03:55:21.371Z,6.00
2023-03-05T04:01:08.214Z,6.00
2023-03-05T04:06:54.901Z,5.94
2023-03-05T04:12:43.656Z,5.62
2023-03-05T04:18:32.490Z,5.64
2023-03-05T04:24:19.446Z,5.88
2023-03-05T04:30:07.568Z,5.85
2023-03-05T04:35:54.441Z,5.77
2023-03-05T04:41:41.405Z,5.82
2023-03-05T04:47:28.316Z,5.78
2023-03-05T04:53:15.067Z,5.85
2023-03-05T04:59:01.940Z,5.97
2023-03-05T05:04:52.129Z,5.77
2023-03-05T05:10:40.218Z,5.63
2023-03-05T05:16:27.053Z,5.60
2023-03-05T05:22:13.905Z,5.61
2023-03-05T05:28:00.647Z,5.68
2023-03-05T05:33:49.695Z,5.57
2023-03-05T05:39:37.137Z,5.68
2023-03-05T05:45:24.230Z,5.75
2023-03-05T05:51:15.151Z,5.75
2023-03-05T05:57:02.093Z,5.49
2023-03-05T06:02:49.019Z,5.52
2023-03-05T06:08:35.851Z,5.38
2023-03-05T06:14:22.592Z,5.51
2023-03-05T06:20:10.047Z,5.50
2023-03-05T06:26:00.021Z,5.65
2023-03-05T06:31:47.040Z,5.52
2023-03-05T06:37:36.771Z,5.53
2023-03-05T06:43:23.774Z,5.41
2023-03-05T06:49:11.809Z,5.33
2023-03-05T06:54:58.547Z,5.40
2023-03-05T07:00:45.692Z,5.33
2023-03-05T07:06:34.864Z,5.31
2023-03-05T07:12:31.456Z,5.54
2023-03-05T07:18:18.390Z,5.34
2023-03-05T07:24:08.611Z,5.24
2023-03-05T07:29:55.447Z,5.40
2023-03-05T07:35:54.634Z,5.60
2023-03-05T07:41:52.798Z,5.56
2023-03-05T07:47:48.008Z,5.70
2023-03-05T07:53:35.101Z,5.78
2023-03-05T07:59:21.836Z,5.65
2023-03-05T08:05:08.843Z,5.77
2023-03-05T08:11:21.105Z,5.78
2023-03-05T08:17:08.741Z,5.90
2023-03-05T08:22:55.595Z,5.55
2023-03-05T08:28:42.855Z,5.52
2023-03-05T08:34:29.982Z,5.57
2023-03-05T08:40:18.194Z,5.95
2023-03-05T08:46:06.504Z,6.02
2023-03-05T08:51:53.207Z,6.16
2023-03-05T08:57:40.063Z,6.27
2023-03-05T09:03:27.086Z,6.21
2023-03-05T09:09:19.764Z,6.14
2023-03-05T09:15:08.445Z,6.33
2023-03-05T09:20:55.554Z,6.38
2023-03-05T09:26:42.438Z,6.55
2023-03-05T09:32:29.884Z,6.55
2023-03-05T09:38:19.347Z,6.59
2023-03-05T09:44:33.002Z,6.60
2023-03-05T09:50:44.979Z,6.79
2023-03-05T09:56:38.148Z,6.54
2023-03-05T10:02:33.949Z,6.52
2023-03-05T10:08:24.997Z,6.22
2023-03-05T10:14:16.135Z,6.43
2023-03-05T10:20:31.030Z,6.72
2023-03-05T10:26:32.382Z,6.44
2023-03-05T10:32:30.486Z,6.17
2023-03-05T10:38:26.556Z,6.43
2023-03-05T10:44:40.711Z,6.67
2023-03-05T10:50:33.829Z,6.69
2023-03-05T10:56:23.954Z,6.67
2023-03-05T11:02:12.788Z,6.83
2023-03-05T11:07:59.675Z,6.72
2023-03-05T11:14:01.200Z,6.46
2023-03-05T11:19:48.100Z,6.59
2023-03-05T11:25:37.891Z,6.62
2023-03-05T11:31:34.714Z,6.50
2023-03-05T11:37:31.595Z,6.48
2023-03-05T11:43:22.611Z,6.63
2023-03-05T11:49:15.737Z,6.45
2023-03-05T11:55:33.135Z,6.41
2023-03-05T12:01:23.704Z,6.34
2023-03-05T12:07:15.806Z,6.44
2023-03-05T12:13:31.115Z,6.51
2023-03-05T12:19:42.794Z,6.52
2023-03-05T12:25:36.350Z,6.25
2023-03-05T12:31:39.601Z,6.30
2023-03-05T12:37:26.514Z,6.20
2023-03-05T12:43:33.836Z,6.43
2023-03-05T12:49:20.691Z,6.61
2023-03-05T12:55:33.618Z,6.71
2023-03-05T13:01:29.486Z,6.91
2023-03-05T13:07:18.224Z,6.95
2023-03-05T13:13:05.215Z,6.82
2023-03-05T13:18:54.351Z,6.75
2023-03-05T13:24:41.436Z,7.04
2023-03-05T13:30:29.153Z,6.89
2023-03-05T13:36:21.511Z,6.98
2023-03-05T13:42:31.173Z,6.87
2023-03-05T13:48:20.216Z,7.22
2023-03-05T13:54:10.932Z,7.41
2023-03-05T13:59:57.924Z,7.45
2023-03-05T14:05:45.542Z,6.94
2023-03-05T14:11:36.163Z,7.06
2023-03-05T14:17:38.435Z,6.77
2023-03-05T14:23:47.648Z,6.93
2023-03-05T14:29:36.015Z,7.07
2023-03-05T14:35:28.310Z,6.90
2023-03-05T14:41:33.993Z,6.77
2023-03-05T14:47:22.708Z,6.89
2023-03-05T14:53:22.020Z,7.00
2023-03-05T14:59:09.660Z,6.96
2023-03-05T15:04:56.770Z,6.88
2023-03-05T15:10:43.519Z,6.85
2023-03-05T15:16:32.142Z,6.62
2023-03-05T15:22:19.053Z,6.94
2023-03-05T15:28:06.072Z,6.86
2023-03-05T15:33:53.009Z,6.96
2023-03-05T15:39:39.749Z,6.44
2023-03-05T15:45:27.581Z,6.06
2023-03-05T15:51:14.401Z,5.67
2023-03-05T15:57:01.297Z,5.91
2023-03-05T16:02:48.140Z,6.03
2023-03-05T16:08:36.885Z,6.09
2023-03-05T16:14:26.658Z,6.14
2023-03-05T16:20:14.502Z,6.20
2023-03-05T16:26:01.414Z,5.96
2023-03-05T16:31:48.325Z,6.01
2023-03-05T16:37:35.609Z,5.99
2023-03-05T16:43:23.812Z,5.86
2023-03-05T16:49:11.581Z,5.68
2023-03-05T16:54:58.473Z,5.33
2023-03-05T17:00:45.707Z,5.39
2023-03-05T17:06:33.604Z,5.44
2023-03-05T17:12:22.557Z,5.87
2023-03-05T17:18:10.115Z,5.92
2023-03-05T17:23:57.143Z,5.81
2023-03-05T17:29:44.051Z,5.67
2023-03-05T17:35:31.189Z,5.66
2023-03-05T17:41:19.758Z,5.74
2023-03-05T17:47:07.012Z,5.55
2023-03-05T17:52:54.072Z,5.36
2023-03-05T17:58:42.435Z,5.88
2023-03-05T18:04:33.991Z,5.73
2023-03-05T18:10:26.530Z,5.68
2023-03-05T18:16:17.069Z,5.59
2023-03-05T18:22:04.481Z,5.72
2023-03-05T18:27:52.949Z,5.64
2023-03-05T18:33:39.870Z,5.69
2023-03-05T18:39:29.327Z,5.80
2023-03-05T18:45:18.852Z,6.04
2023-03-05T18:51:17.534Z,6.27
2023-03-05T18:57:26.270Z,6.34
2023-03-05T19:03:14.643Z,6.28
2023-03-05T19:09:13.123Z,6.21
2023-03-05T19:15:18.622Z,6.29
2023-03-05T19:21:10.219Z,6.29
2023-03-05T19:33:17.251Z,6.22
2023-03-05T19:53:01.829Z,6.40
2023-03-05T19:58:51.502Z,6.43
2023-03-05T20:04:42.654Z,6.42
2023-03-05T20:10:34.713Z,6.27
2023-03-05T20:16:33.888Z,6.08
2023-03-05T20:22:21.240Z,6.13
2023-03-05T20:28:10.419Z,6.29
2023-03-05T20:34:02.501Z,6.22
2023-03-05T20:39:51.063Z,6.10
2023-03-05T20:45:40.343Z,6.20
2023-03-05T20:51:36.344Z,6.18
2023-03-05T20:57:23.068Z,6.32
2023-03-05T21:03:10.333Z,6.28
2023-03-05T21:08:58.957Z,6.17
2023-03-05T21:14:45.875Z,6.41
2023-03-05T21:27:43.385Z,6.25
2023-03-05T21:33:30.548Z,6.21
2023-03-05T21:39:17.283Z,6.21
2023-03-05T21:45:05.567Z,6.19
2023-03-05T21:50:55.559Z,5.93
2023-03-05T21:56:42.988Z,6.02
2023-03-05T22:02:29.786Z,5.92
2023-03-05T22:08:16.794Z,6.04
2023-03-05T22:14:03.598Z,5.99
2023-03-05T22:19:50.384Z,5.87
2023-03-05T22:25:38.279Z,5.87
2023-03-05T22:31:30.469Z,5.86
2023-03-05T22:37:17.508Z,5.84
2023-03-05T22:43:04.924Z,5.90
2023-03-05T22:48:54.901Z,5.86
2023-03-05T22:54:56.800Z,5.78
2023-03-05T23:01:15.217Z,5.80
2023-03-05T23:07:58.150Z,5.76
2023-03-05T23:13:45.129Z,5.64
2023-03-05T23:19:39.725Z,5.68
2023-03-05T23:26:38.918Z,5.75
2023-03-05T23:32:39.745Z,5.57
2023-03-05T23:39:42.385Z,5.57
2023-03-05T23:45:30.676Z,5.40
2023-03-05T23:51:54.956Z,5.34
2023-03-05T23:57:45.637Z,5.22
